createdAt,value
2019-04-22T00:02:26.682Z,8.57
2019-04-22T00:05:11.202Z,8.17
2019-04-22T00:07:56.800Z,7.43
2019-04-22T00:10:32.382Z,8.23
2019-04-22T00:12:59.817Z,8.97
2019-04-22T00:15:26.115Z,8.47
2019-04-22T00:18:07.690Z,8.17
2019-04-22T00:20:35.340Z,8.17
2019-04-22T00:23:04.115Z,6.10
2019-04-22T00:25:42.105Z,6.27
2019-04-22T00:28:08.516Z,7.20
2019-04-22T00:30:34.260Z,8.13
2019-04-22T00:33:35.494Z,7.03
2019-04-22T00:36:04.431Z,6.07
2019-04-22T00:41:05.756Z,7.30
2019-04-22T00:43:39.481Z,6.83
2019-04-22T00:46:06.691Z,7.20
2019-04-22T00:48:44.461Z,9.70
2019-04-22T00:51:14.353Z,8.83
2019-04-22T00:53:39.219Z,8.13
2019-04-22T01:01:19.216Z,7.63
2019-04-22T01:04:02.121Z,10.87
2019-04-22T01:06:20.401Z,6.53
2019-04-22T01:11:29.711Z,8.30
2019-04-22T01:13:55.732Z,10.90
2019-04-22T01:18:55.142Z,8.13
2019-04-22T01:21:38.549Z,8.10
2019-04-22T01:23:59.671Z,6.83
2019-04-22T01:26:25.365Z,8.00
2019-04-22T01:28:56.369Z,7.47
2019-04-22T01:31:21.003Z,8.73
2019-04-22T01:34:04.387Z,7.13
2019-04-22T01:36:38.810Z,8.00
2019-04-22T01:39:15.338Z,7.37
2019-04-22T01:41:55.360Z,7.00
2019-04-22T01:44:22.601Z,9.43
2019-04-22T01:46:53.897Z,8.30
2019-04-22T01:49:25.585Z,7.40
2019-04-22T01:51:58.401Z,7.40
2019-04-22T01:54:29.815Z,7.03
2019-04-22T01:57:01.701Z,8.13
2019-04-22T01:59:22.455Z,6.13
2019-04-22T02:04:36.834Z,6.50
2019-04-22T02:07:02.792Z,6.10
2019-04-22T02:09:39.822Z,6.23
2019-04-22T02:12:11.574Z,6.30
2019-04-22T02:14:39.352Z,6.87
2019-04-22T02:17:09.240Z,5.37
2019-04-22T02:19:48.141Z,6.20
2019-04-22T02:22:19.051Z,7.57
2019-04-22T02:24:46.961Z,7.50
2019-04-22T02:27:17.778Z,8.70
2019-04-22T02:30:02.960Z,11.67
2019-04-22T02:32:43.861Z,8.97
2019-04-22T02:37:23.296Z,10.13
2019-04-22T02:40:19.429Z,11.90
2019-04-22T02:44:53.096Z,11.53
2019-04-22T02:47:27.550Z,10.37
2019-04-22T02:55:07.173Z,9.60
2019-04-22T02:57:47.098Z,10.33
2019-04-22T03:00:14.441Z,9.60
2019-04-22T03:02:50.706Z,12.00
2019-04-22T03:05:19.456Z,12.60
2019-04-22T03:07:55.903Z,11.50
2019-04-22T03:10:37.182Z,10.73
2019-04-22T03:12:41.327Z,9.33
2019-04-22T03:15:07.413Z,12.40
2019-04-22T03:17:51.573Z,9.37
2019-04-22T03:20:19.099Z,9.43
2019-04-22T03:22:59.572Z,11.77
2019-04-22T03:27:44.215Z,14.17
2019-04-22T03:37:55.766Z,11.13
2019-04-22T03:43:10.886Z,10.60
2019-04-22T03:45:30.219Z,11.47
2019-04-22T03:48:09.624Z,9.70
2019-04-22T03:58:32.361Z,9.47
2019-04-22T04:03:11.913Z,12.80
2019-04-22T04:08:33.311Z,12.10
2019-04-22T04:10:48.036Z,10.93
2019-04-22T04:15:53.575Z,7.70
2019-04-22T04:18:33.097Z,8.93
2019-04-22T04:23:38.009Z,10.50
2019-04-22T04:26:23.912Z,11.80
2019-04-22T04:31:04.851Z,7.40
2019-04-22T04:33:38.169Z,7.73
2019-04-22T04:36:07.821Z,8.53
2019-04-22T04:38:52.366Z,8.30
2019-04-22T04:43:50.605Z,10.57
2019-04-22T04:46:18.874Z,9.40
2019-04-22T04:48:53.748Z,9.03
2019-04-22T04:53:41.460Z,11.97
2019-04-22T04:56:20.985Z,11.20
2019-04-22T05:01:27.114Z,12.73
2019-04-22T05:03:57.848Z,14.70
2019-04-22T05:06:39.272Z,17.10
2019-04-22T05:11:43.156Z,14.17
2019-04-22T05:14:05.875Z,15.40
2019-04-22T05:16:36.064Z,14.07
2019-04-22T05:21:26.698Z,13.77
2019-04-22T05:24:02.678Z,15.40
2019-04-22T05:26:32.848Z,18.17
2019-04-22T05:28:58.951Z,28.20
2019-04-22T05:34:04.451Z,37.37
2019-04-22T05:36:32.760Z,30.37
2019-04-22T05:39:06.184Z,25.83
2019-04-22T05:41:39.581Z,22.67
2019-04-22T05:44:08.391Z,24.70
2019-04-22T05:46:39.591Z,46.00
2019-04-22T05:49:15.013Z,43.07
2019-04-22T05:51:43.641Z,25.67
2019-04-22T05:54:14.571Z,38.30
2019-04-22T05:57:00.613Z,27.23
2019-04-22T05:59:22.767Z,31.07
2019-04-22T06:02:01.415Z,22.03
2019-04-22T06:04:25.050Z,28.10
2019-04-22T06:06:51.606Z,21.60
2019-04-22T06:09:24.746Z,23.87
2019-04-22T06:11:51.897Z,28.40
2019-04-22T06:14:24.724Z,24.67
2019-04-22T06:17:03.900Z,23.70
2019-04-22T06:19:31.324Z,18.87
2019-04-22T06:22:06.440Z,21.63
2019-04-22T06:24:31.206Z,17.53
2019-04-22T06:29:39.886Z,20.57
2019-04-22T06:32:23.931Z,27.23
2019-04-22T06:34:42.145Z,21.50
2019-04-22T06:37:13.436Z,18.67
2019-04-22T06:42:17.546Z,14.40
2019-04-22T06:44:43.056Z,15.50
2019-04-22T06:47:36.893Z,13.43
2019-04-22T06:49:53.078Z,12.90
2019-04-22T06:52:18.261Z,13.93
2019-04-22T06:54:56.137Z,12.67
2019-04-22T06:57:25.772Z,13.43
2019-04-22T07:00:00.146Z,11.07
2019-04-22T07:02:38.994Z,10.87
2019-04-22T07:04:56.505Z,13.33
2019-04-22T07:07:27.825Z,12.23
2019-04-22T07:10:11.586Z,13.33
2019-04-22T07:12:36.318Z,14.23
2019-04-22T07:15:21.869Z,12.73
2019-04-22T07:17:45.928Z,12.83
2019-04-22T07:20:10.753Z,13.00
2019-04-22T07:22:41.723Z,14.70
2019-04-22T07:25:10.390Z,15.10
2019-04-22T07:27:46.027Z,17.90
2019-04-22T07:33:04.945Z,14.23
2019-04-22T07:35:22.575Z,11.03
2019-04-22T07:37:48.576Z,11.83
2019-04-22T07:40:27.104Z,12.50
2019-04-22T07:42:57.093Z,13.10
2019-04-22T07:45:25.431Z,12.97
2019-04-22T07:48:04.689Z,13.07
2019-04-22T07:50:42.809Z,12.30
2019-04-22T07:52:56.899Z,17.27
2019-04-22T07:55:36.851Z,14.87
2019-04-22T07:58:05.342Z,13.00
2019-04-22T08:03:11.750Z,12.23
2019-04-22T08:08:19.707Z,14.50
2019-04-22T08:13:19.766Z,13.17
2019-04-22T08:15:47.106Z,15.87
2019-04-22T08:18:17.490Z,15.77
2019-04-22T08:20:52.836Z,15.63
2019-04-22T08:23:23.811Z,14.10
2019-04-22T08:25:47.580Z,15.67
2019-04-22T08:28:26.329Z,17.63
2019-04-22T08:30:56.703Z,13.47
2019-04-22T08:33:29.297Z,13.00
2019-04-22T08:36:10.798Z,14.87
2019-04-22T08:38:37.716Z,11.70
2019-04-22T08:41:40.235Z,12.77
2019-04-22T08:46:27.444Z,11.37
2019-04-22T08:48:54.217Z,9.63
2019-04-22T08:51:29.280Z,12.10
2019-04-22T08:54:11.893Z,9.53
2019-04-22T08:56:35.201Z,10.53
2019-04-22T09:01:35.865Z,9.97
2019-04-22T09:06:57.759Z,8.87
2019-04-22T09:09:11.521Z,10.27
2019-04-22T09:11:41.912Z,9.20
2019-04-22T09:17:01.743Z,9.73
2019-04-22T09:19:12.733Z,9.73
2019-04-22T09:22:00.475Z,9.53
2019-04-22T09:24:19.716Z,9.78
2019-04-22T09:26:50.595Z,8.40
2019-04-22T09:31:53.853Z,8.08
2019-04-22T09:34:23.510Z,8.93
2019-04-22T09:36:59.490Z,8.18
2019-04-22T09:39:29.723Z,8.30
2019-04-22T09:42:03.362Z,7.72
2019-04-22T09:44:34.609Z,7.45
2019-04-22T09:47:05.225Z,8.03
2019-04-22T09:49:36.611Z,7.47
2019-04-22T09:52:07.972Z,8.23
2019-04-22T09:57:09.205Z,9.83
2019-04-22T09:59:48.461Z,10.08
2019-04-22T10:04:40.134Z,9.33
2019-04-22T10:07:15.266Z,9.70
2019-04-22T10:10:00.056Z,9.68
2019-04-22T10:12:19.280Z,10.20
2019-04-22T10:14:49.214Z,9.65
2019-04-22T10:17:17.775Z,10.53
2019-04-22T10:19:49.437Z,11.12
2019-04-22T10:22:27.483Z,9.10
2019-04-22T10:24:55.837Z,7.92
2019-04-22T10:27:24.266Z,8.60
2019-04-22T10:32:28.043Z,8.93
2019-04-22T10:34:43.618Z,8.40
2019-04-22T10:37:11.716Z,8.85
2019-04-22T10:39:52.490Z,8.38
2019-04-22T10:42:13.468Z,8.13
2019-04-22T10:44:45.188Z,8.43
2019-04-22T10:47:14.355Z,7.30
2019-04-22T10:49:44.498Z,8.63
2019-04-22T10:52:14.247Z,7.83
2019-04-22T10:54:43.782Z,9.15
2019-04-22T10:57:14.150Z,7.62
2019-04-22T10:59:44.911Z,8.68
2019-04-22T11:02:14.781Z,7.40
2019-04-22T11:04:45.977Z,7.65
2019-04-22T11:07:17.373Z,7.50
2019-04-22T11:09:55.316Z,9.35
2019-04-22T11:12:22.737Z,7.60
2019-04-22T11:14:51.646Z,8.07
2019-04-22T11:17:21.825Z,7.70
2019-04-22T11:19:51.619Z,6.55
2019-04-22T11:22:26.538Z,8.60
2019-04-22T11:24:54.802Z,9.53
2019-04-22T11:27:25.382Z,7.83
2019-04-22T11:29:55.515Z,8.40
2019-04-22T11:32:26.641Z,7.80
2019-04-22T11:34:56.185Z,7.47
2019-04-22T11:37:25.970Z,7.23
2019-04-22T11:40:08.663Z,6.97
2019-04-22T11:42:28.109Z,9.05
2019-04-22T11:44:57.650Z,9.77
2019-04-22T11:47:27.477Z,10.03
2019-04-22T11:49:57.673Z,8.63
2019-04-22T11:52:28.771Z,7.63
2019-04-22T11:54:58.946Z,7.67
2019-04-22T11:57:28.814Z,8.20
2019-04-22T11:59:58.888Z,7.63
2019-04-22T12:02:33.089Z,7.63
2019-04-22T12:05:03.817Z,7.90
2019-04-22T12:07:36.355Z,11.60
2019-04-22T12:10:18.955Z,6.85
2019-04-22T12:12:37.001Z,9.00
2019-04-22T12:15:08.525Z,9.07
2019-04-22T12:17:38.216Z,9.73
2019-04-22T12:20:12.221Z,11.53
2019-04-22T12:22:41.055Z,11.33
2019-04-22T12:25:12.574Z,11.73
2019-04-22T12:27:43.158Z,12.23
2019-04-22T12:30:14.696Z,11.97
2019-04-22T12:32:45.583Z,11.70
2019-04-22T12:35:15.724Z,11.90
2019-04-22T12:37:52.934Z,11.03
2019-04-22T12:40:30.150Z,11.10
2019-04-22T12:42:49.175Z,10.83
2019-04-22T12:45:22.307Z,12.57
2019-04-22T12:47:53.857Z,9.03
2019-04-22T12:50:31.074Z,8.33
2019-04-22T12:53:02.441Z,8.83
2019-04-22T12:55:27.958Z,8.70
2019-04-22T12:58:00.798Z,7.90
2019-04-22T13:00:30.128Z,9.13
2019-04-22T13:03:00.964Z,10.63
2019-04-22T13:05:31.429Z,8.80
2019-04-22T13:08:02.003Z,7.47
2019-04-22T13:10:42.948Z,7.93
2019-04-22T13:13:05.010Z,11.57
2019-04-22T13:15:35.140Z,8.40
2019-04-22T13:18:14.894Z,8.00
2019-04-22T13:20:36.569Z,8.83
2019-04-22T13:23:07.745Z,9.13
2019-04-22T13:25:38.890Z,6.90
2019-04-22T13:28:09.355Z,8.70
2019-04-22T13:30:40.813Z,6.80
2019-04-22T13:33:10.874Z,10.07
2019-04-22T13:35:41.642Z,6.90
2019-04-22T13:38:12.709Z,8.50
2019-04-22T13:43:13.642Z,8.47
2019-04-22T13:45:43.756Z,7.03
2019-04-22T13:48:33.587Z,7.27
2019-04-22T13:51:20.797Z,6.17
2019-04-22T13:54:14.183Z,7.00
2019-04-22T13:56:10.441Z,7.10
2019-04-22T13:58:35.481Z,6.87
2019-04-22T14:00:52.153Z,6.90
2019-04-22T14:03:44.706Z,7.87
2019-04-22T14:06:14.738Z,8.23
2019-04-22T14:08:45.202Z,6.60
2019-04-22T14:11:25.592Z,8.10
2019-04-22T14:13:47.919Z,8.20
2019-04-22T14:16:17.344Z,8.47
2019-04-22T14:18:47.767Z,6.97
2019-04-22T14:21:18.762Z,6.43
2019-04-22T14:23:48.776Z,7.33
2019-04-22T14:26:19.672Z,8.97
2019-04-22T14:28:50.068Z,7.47
2019-04-22T14:31:20.349Z,7.20
2019-04-22T14:33:54.865Z,9.97
2019-04-22T14:36:21.577Z,6.90
2019-04-22T14:38:52.338Z,12.80
2019-04-22T14:41:40.662Z,25.70
2019-04-22T14:45:04.972Z,20.47
2019-04-22T14:46:58.320Z,15.13
2019-04-22T14:49:23.943Z,8.70
2019-04-22T14:51:49.813Z,8.20
2019-04-22T14:54:13.972Z,9.93
2019-04-22T14:56:31.378Z,9.33
2019-04-22T14:59:00.888Z,10.23
2019-04-22T15:01:30.879Z,12.67
2019-04-22T15:04:00.923Z,8.13
2019-04-22T15:06:31.834Z,9.10
2019-04-22T15:09:01.916Z,7.77
2019-04-22T15:11:43.747Z,9.37
2019-04-22T15:14:03.286Z,7.10
2019-04-22T15:16:40.992Z,10.23
2019-04-22T15:19:33.761Z,7.10
2019-04-22T15:22:05.030Z,10.30
2019-04-22T15:24:36.613Z,7.13
2019-04-22T15:27:06.623Z,7.87
2019-04-22T15:29:36.365Z,7.60
2019-04-22T15:32:07.558Z,7.97
2019-04-22T15:34:37.324Z,11.57
2019-04-22T15:37:08.333Z,7.60
2019-04-22T15:39:39.433Z,10.87
2019-04-22T15:42:19.698Z,10.17
2019-04-22T15:44:42.206Z,9.20
2019-04-22T15:47:13.202Z,9.43
2019-04-22T15:49:43.097Z,11.13
2019-04-22T15:52:12.843Z,10.07
2019-04-22T15:54:43.776Z,13.17
2019-04-22T15:57:14.913Z,11.03
2019-04-22T15:59:57.824Z,7.87
2019-04-22T16:02:16.134Z,9.00
2019-04-22T16:04:46.510Z,9.33
2019-04-22T16:07:17.063Z,10.13
2019-04-22T16:09:47.885Z,7.73
2019-04-22T16:12:25.919Z,8.70
2019-04-22T16:14:54.618Z,9.30
2019-04-22T16:17:22.302Z,9.40
2019-04-22T16:19:53.259Z,8.73
2019-04-22T16:22:25.067Z,9.05
2019-04-22T16:25:08.901Z,8.03
2019-04-22T16:27:38.702Z,9.73
2019-04-22T16:30:09.623Z,11.20
2019-04-22T16:32:39.565Z,10.10
2019-04-22T16:35:10.529Z,9.27
2019-04-22T16:37:41.061Z,9.47
2019-04-22T16:40:12.564Z,8.37
2019-04-22T16:42:49.133Z,12.63
2019-04-22T16:45:14.070Z,8.97
2019-04-22T16:47:44.063Z,8.80
2019-04-22T16:50:14.290Z,11.73
2019-04-22T16:52:44.056Z,10.03
2019-04-22T16:55:14.794Z,11.03
2019-04-22T16:57:44.354Z,27.90
2019-04-22T17:00:16.434Z,20.27
2019-04-22T17:03:06.797Z,34.70
2019-04-22T17:06:08.124Z,17.07
2019-04-22T17:08:39.116Z,21.93
2019-04-22T17:11:09.770Z,10.00
2019-04-22T17:13:40.355Z,9.80
2019-04-22T17:16:11.938Z,13.27
2019-04-22T17:18:43.573Z,8.63
2019-04-22T17:21:14.771Z,9.97
2019-04-22T17:23:45.722Z,12.47
2019-04-22T17:26:16.686Z,11.00
2019-04-22T17:28:47.407Z,11.50
2019-04-22T17:31:18.598Z,11.73
2019-04-22T17:33:48.982Z,15.83
2019-04-22T17:36:20.272Z,14.23
2019-04-22T17:38:59.963Z,13.73
2019-04-22T17:41:40.519Z,12.40
2019-04-22T17:44:21.768Z,10.67
2019-04-22T17:46:51.005Z,12.93
2019-04-22T17:49:53.701Z,10.70
2019-04-22T17:57:24.759Z,15.37
2019-04-22T17:59:55.057Z,20.27
2019-04-22T18:02:24.638Z,15.90
2019-04-22T18:04:50.854Z,14.67
2019-04-22T18:12:47.345Z,12.60
2019-04-22T18:15:10.260Z,10.53
2019-04-22T18:17:41.322Z,10.37
2019-04-22T18:20:08.894Z,10.33
2019-04-22T18:22:33.049Z,9.63
2019-04-22T18:25:04.770Z,9.27
2019-04-22T18:27:55.214Z,14.17
2019-04-22T18:30:10.977Z,11.10
2019-04-22T18:32:47.129Z,10.53
2019-04-22T18:35:14.310Z,11.43
2019-04-22T18:37:54.756Z,9.37
2019-04-22T18:40:26.904Z,8.37
2019-04-22T18:42:58.451Z,12.83
2019-04-22T18:45:45.459Z,13.03
2019-04-22T18:47:48.856Z,10.30
2019-04-22T18:50:45.318Z,12.73
2019-04-22T18:53:38.265Z,10.27
2019-04-22T18:56:24.918Z,12.27
2019-04-22T18:58:51.095Z,9.53
2019-04-22T19:01:10.291Z,10.47
2019-04-22T19:03:49.732Z,9.87
2019-04-22T19:06:43.297Z,10.07
2019-04-22T19:09:08.781Z,14.83
2019-04-22T19:11:38.633Z,11.30
2019-04-22T19:14:07.704Z,9.53
2019-04-22T19:16:53.341Z,11.47
2019-04-22T19:19:29.414Z,10.07
2019-04-22T19:21:38.111Z,12.03
2019-04-22T19:24:09.065Z,8.40
2019-04-22T19:26:50.520Z,10.07
2019-04-22T19:29:12.263Z,8.03
2019-04-22T19:31:45.503Z,8.30
2019-04-22T19:34:16.722Z,8.10
2019-04-22T19:36:53.001Z,9.10
2019-04-22T19:39:14.800Z,8.57
2019-04-22T19:41:56.043Z,10.43
2019-04-22T19:44:20.169Z,9.10
2019-04-22T19:49:33.422Z,7.10
2019-04-22T19:52:08.294Z,9.83
2019-04-22T19:54:30.736Z,7.83
2019-04-22T19:56:53.059Z,10.27
2019-04-22T19:59:33.988Z,9.27
2019-04-22T20:02:31.557Z,8.47
2019-04-22T20:05:25.702Z,6.30
2019-04-22T20:07:48.802Z,10.20
2019-04-22T20:10:25.280Z,9.10
2019-04-22T20:12:52.906Z,9.10
2019-04-22T20:15:22.375Z,11.40
2019-04-22T20:20:31.788Z,11.93
2019-04-22T20:22:57.513Z,9.40
2019-04-22T20:25:31.357Z,10.53
2019-04-22T20:28:06.178Z,11.50
2019-04-22T20:30:39.777Z,9.07
2019-04-22T20:33:06.403Z,10.10
2019-04-22T20:35:44.001Z,7.33
2019-04-22T20:38:14.892Z,8.73
2019-04-22T20:40:42.503Z,7.10
2019-04-22T20:43:25.146Z,9.67
2019-04-22T20:45:46.432Z,8.47
2019-04-22T20:48:09.295Z,8.13
2019-04-22T20:50:54.206Z,8.47
2019-04-22T20:53:28.134Z,8.07
2019-04-22T20:55:52.533Z,10.27
2019-04-22T20:58:28.551Z,13.57
2019-04-22T21:00:49.497Z,15.87
2019-04-22T21:03:18.438Z,8.93
2019-04-22T21:05:51.816Z,9.10
2019-04-22T21:08:30.670Z,6.87
2019-04-22T21:10:52.126Z,6.67
2019-04-22T21:13:24.508Z,6.73
2019-04-22T21:16:09.278Z,6.23
2019-04-22T21:18:37.400Z,10.33
2019-04-22T21:21:15.096Z,17.40
2019-04-22T21:23:41.276Z,15.80
2019-04-22T21:26:16.693Z,10.10
2019-04-22T21:28:47.597Z,6.80
2019-04-22T21:31:23.707Z,6.40
2019-04-22T21:33:54.877Z,7.90
2019-04-22T21:36:28.343Z,6.70
2019-04-22T21:38:55.357Z,6.73
2019-04-22T21:41:20.548Z,6.70
2019-04-22T21:43:58.234Z,5.47
2019-04-22T21:46:28.907Z,6.53
2019-04-22T21:49:04.920Z,6.47
2019-04-22T21:51:39.750Z,9.17
2019-04-22T21:54:09.725Z,6.67
2019-04-22T21:56:53.120Z,6.43
2019-04-22T21:59:15.614Z,7.13
2019-04-22T22:01:52.640Z,7.73
2019-04-22T22:04:21.457Z,8.93
2019-04-22T22:06:41.101Z,6.93
2019-04-22T22:09:28.058Z,8.70
2019-04-22T22:11:52.877Z,9.23
2019-04-22T22:14:24.506Z,6.63
2019-04-22T22:16:50.857Z,6.97
2019-04-22T22:19:31.268Z,6.63
2019-04-22T22:22:13.841Z,7.27
2019-04-22T22:24:39.976Z,9.27
2019-04-22T22:27:06.812Z,7.37
2019-04-22T22:29:57.144Z,9.97
2019-04-22T22:32:11.198Z,7.47
2019-04-22T22:34:39.509Z,10.20
2019-04-22T22:37:03.608Z,7.60
2019-04-22T22:39:34.096Z,7.50
2019-04-22T22:41:52.074Z,7.43
2019-04-22T22:44:31.943Z,6.60
2019-04-22T22:47:15.625Z,6.43
2019-04-22T22:49:50.221Z,7.27
2019-04-22T22:52:42.377Z,8.43
2019-04-22T22:54:49.085Z,10.03
2019-04-22T22:57:28.878Z,9.97
2019-04-22T22:59:51.252Z,6.73
2019-04-22T23:02:22.894Z,8.27
2019-04-22T23:04:52.237Z,8.23
2019-04-22T23:07:33.417Z,9.00
2019-04-22T23:09:53.656Z,7.43
2019-04-22T23:12:35.109Z,9.73
2019-04-22T23:14:59.257Z,8.83
2019-04-22T23:17:14.579Z,7.90
2019-04-22T23:19:47.839Z,10.03
2019-04-22T23:22:23.199Z,8.73
2019-04-22T23:25:07.771Z,10.40
2019-04-22T23:27:44.448Z,8.83
2019-04-22T23:30:36.251Z,8.97
2019-04-22T23:33:18.394Z,9.43
2019-04-22T23:35:54.857Z,8.00
2019-04-22T23:38:24.213Z,7.47
2019-04-22T23:41:03.781Z,9.13
2019-04-22T23:43:38.696Z,8.17
2019-04-22T23:46:02.266Z,9.70
2019-04-22T23:48:28.954Z,8.63
2019-04-22T23:51:09.239Z,6.90
2019-04-22T23:53:58.083Z,7.80
2019-04-22T23:56:11.082Z,7.23
2019-04-22T23:59:04.774Z,9.87
